createdAt,value
2018-06-27T00:01:34.511Z,9.05
2018-06-27T00:04:03.401Z,8.30
2018-06-27T00:06:31.869Z,7.90
2018-06-27T00:09:00.216Z,9.13
2018-06-27T00:11:28.894Z,9.63
2018-06-27T00:14:03.492Z,8.53
2018-06-27T00:16:31.897Z,7.85
2018-06-27T00:19:01.080Z,8.20
2018-06-27T00:21:30.088Z,9.20
2018-06-27T00:23:58.458Z,9.50
2018-06-27T00:26:31.766Z,9.40
2018-06-27T00:29:00.143Z,9.00
2018-06-27T00:31:28.909Z,9.60
2018-06-27T00:33:57.274Z,10.88
2018-06-27T00:36:30.702Z,9.15
2018-06-27T00:38:59.696Z,9.93
2018-06-27T00:41:27.886Z,11.08
2018-06-27T00:43:56.319Z,13.98
2018-06-27T00:46:24.874Z,9.28
2018-06-27T00:48:53.062Z,10.28
2018-06-27T00:51:21.578Z,9.78
2018-06-27T00:53:55.317Z,10.95
2018-06-27T00:56:23.738Z,13.28
2018-06-27T00:58:52.029Z,10.70
2018-06-27T01:01:20.279Z,11.08
2018-06-27T01:03:48.960Z,11.57
2018-06-27T01:06:17.551Z,11.55
2018-06-27T01:08:45.805Z,11.00
2018-06-27T01:11:14.018Z,12.75
2018-06-27T01:13:42.298Z,10.23
2018-06-27T01:16:10.952Z,11.30
2018-06-27T01:18:39.266Z,10.20
2018-06-27T01:21:07.747Z,10.90
2018-06-27T01:23:35.987Z,11.70
2018-06-27T01:26:04.909Z,10.85
2018-06-27T01:28:33.181Z,10.35
2018-06-27T01:31:01.713Z,11.38
2018-06-27T01:33:29.893Z,11.63
2018-06-27T01:35:58.282Z,11.30
2018-06-27T01:38:26.586Z,10.30
2018-06-27T01:40:54.792Z,11.18
2018-06-27T01:43:23.109Z,10.82
2018-06-27T01:45:51.285Z,12.90
2018-06-27T01:48:19.553Z,11.33
2018-06-27T01:50:47.758Z,12.45
2018-06-27T01:53:16.173Z,11.95
2018-06-27T01:55:44.577Z,11.60
2018-06-27T01:58:13.238Z,12.55
2018-06-27T02:00:41.479Z,12.37
2018-06-27T02:03:10.213Z,12.15
2018-06-27T02:05:38.612Z,14.00
2018-06-27T02:08:06.903Z,12.05
2018-06-27T02:10:35.053Z,12.28
2018-06-27T02:13:03.365Z,14.75
2018-06-27T02:15:31.523Z,12.65
2018-06-27T02:17:59.861Z,12.47
2018-06-27T02:20:28.138Z,12.28
2018-06-27T02:23:09.060Z,13.10
2018-06-27T02:25:37.897Z,11.55
2018-06-27T02:28:06.811Z,13.95
2018-06-27T02:30:35.085Z,11.88
2018-06-27T02:33:03.605Z,11.30
2018-06-27T02:35:31.879Z,12.58
2018-06-27T02:38:00.280Z,12.18
2018-06-27T02:40:28.572Z,14.58
2018-06-27T02:42:57.032Z,13.60
2018-06-27T02:45:25.395Z,11.60
2018-06-27T02:47:53.621Z,15.78
2018-06-27T02:50:21.936Z,13.88
2018-06-27T02:52:50.112Z,13.88
2018-06-27T02:55:18.683Z,12.80
2018-06-27T02:57:46.925Z,12.20
2018-06-27T03:00:16.122Z,12.45
2018-06-27T03:02:45.569Z,14.35
2018-06-27T03:05:13.878Z,14.33
2018-06-27T03:07:42.593Z,12.33
2018-06-27T03:10:11.022Z,14.43
2018-06-27T03:12:39.409Z,14.58
2018-06-27T03:15:08.843Z,12.37
2018-06-27T03:17:37.134Z,12.80
2018-06-27T03:20:05.506Z,12.33
2018-06-27T03:22:34.081Z,12.37
2018-06-27T03:25:02.540Z,12.47
2018-06-27T03:27:30.761Z,12.25
2018-06-27T03:29:58.976Z,10.72
2018-06-27T03:32:27.318Z,11.70
2018-06-27T03:34:55.518Z,10.80
2018-06-27T03:37:23.839Z,11.90
2018-06-27T03:39:52.042Z,11.90
2018-06-27T03:42:20.723Z,10.10
2018-06-27T03:44:49.509Z,10.17
2018-06-27T03:47:17.735Z,12.60
2018-06-27T03:49:46.103Z,9.83
2018-06-27T03:52:14.417Z,10.68
2018-06-27T03:54:42.587Z,11.60
2018-06-27T03:57:11.077Z,12.15
2018-06-27T03:59:43.556Z,9.43
2018-06-27T04:02:11.854Z,8.40
2018-06-27T04:04:40.689Z,9.00
2018-06-27T04:07:08.888Z,9.48
2018-06-27T04:09:37.376Z,9.68
2018-06-27T04:12:05.532Z,9.23
2018-06-27T04:14:33.760Z,8.85
2018-06-27T04:17:02.033Z,9.75
2018-06-27T04:19:30.441Z,10.70
2018-06-27T04:21:58.605Z,8.40
2018-06-27T04:24:26.877Z,8.20
2018-06-27T04:27:20.095Z,8.75
2018-06-27T04:29:48.508Z,8.33
2018-06-27T04:32:16.842Z,7.92
2018-06-27T04:34:45.078Z,8.45
2018-06-27T04:37:13.182Z,7.45
2018-06-27T04:39:41.313Z,9.35
2018-06-27T04:42:09.429Z,10.70
2018-06-27T04:44:37.848Z,8.63
2018-06-27T04:47:06.378Z,7.03
2018-06-27T04:49:34.618Z,7.60
2018-06-27T04:52:03.090Z,7.97
2018-06-27T04:54:31.225Z,9.90
2018-06-27T04:57:00.921Z,8.38
2018-06-27T04:59:29.333Z,8.35
2018-06-27T05:01:57.698Z,7.60
2018-06-27T05:04:26.176Z,7.65
2018-06-27T05:06:54.652Z,7.35
2018-06-27T05:09:22.954Z,8.08
2018-06-27T05:11:51.228Z,18.00
2018-06-27T05:14:19.437Z,7.92
2018-06-27T05:16:47.697Z,8.98
2018-06-27T05:19:16.128Z,9.80
2018-06-27T05:21:44.588Z,8.48
2018-06-27T05:24:13.076Z,7.95
2018-06-27T05:26:41.453Z,7.70
2018-06-27T05:29:09.985Z,7.62
2018-06-27T05:31:38.512Z,8.35
2018-06-27T05:34:07.183Z,8.93
2018-06-27T05:36:36.051Z,8.10
2018-06-27T05:39:08.247Z,8.68
2018-06-27T05:41:36.436Z,9.30
2018-06-27T05:44:04.758Z,8.48
2018-06-27T05:46:33.490Z,7.37
2018-06-27T05:49:01.790Z,7.70
2018-06-27T05:51:30.758Z,6.33
2018-06-27T05:53:59.041Z,6.13
2018-06-27T05:56:27.274Z,7.70
2018-06-27T05:58:55.719Z,7.00
2018-06-27T06:01:24.825Z,7.43
2018-06-27T06:03:53.341Z,7.50
2018-06-27T06:06:21.666Z,6.90
2018-06-27T06:08:50.098Z,7.13
2018-06-27T06:11:18.584Z,6.70
2018-06-27T06:13:46.714Z,7.20
2018-06-27T06:16:14.915Z,7.20
2018-06-27T06:18:43.129Z,8.50
2018-06-27T06:21:11.533Z,7.27
2018-06-27T06:23:39.959Z,7.60
2018-06-27T06:26:08.330Z,7.57
2018-06-27T06:28:36.721Z,7.63
2018-06-27T06:31:05.002Z,6.60
2018-06-27T06:33:33.353Z,5.80
2018-06-27T06:36:01.739Z,7.40
2018-06-27T06:38:30.000Z,13.70
2018-06-27T06:40:58.297Z,7.03
2018-06-27T06:43:26.543Z,9.07
2018-06-27T06:45:54.833Z,5.87
2018-06-27T06:48:23.143Z,6.23
2018-06-27T06:50:51.417Z,9.00
2018-06-27T06:53:19.863Z,6.60
2018-06-27T06:55:48.049Z,8.27
2018-06-27T06:58:16.432Z,6.37
2018-06-27T07:00:44.727Z,6.23
2018-06-27T07:03:12.891Z,5.50
2018-06-27T07:05:41.211Z,6.13
2018-06-27T07:08:09.504Z,5.80
2018-06-27T07:10:38.277Z,5.97
2018-06-27T07:13:06.594Z,6.10
2018-06-27T07:15:35.055Z,5.30
2018-06-27T07:18:03.543Z,5.37
2018-06-27T07:20:32.076Z,4.50
2018-06-27T07:23:00.220Z,5.23
2018-06-27T07:25:29.783Z,4.40
2018-06-27T07:27:58.114Z,4.67
2018-06-27T07:30:26.429Z,5.20
2018-06-27T07:32:54.878Z,4.43
2018-06-27T07:35:23.190Z,5.53
2018-06-27T07:37:56.546Z,5.50
2018-06-27T07:40:24.864Z,5.70
2018-06-27T07:42:53.280Z,4.77
2018-06-27T07:45:21.441Z,5.03
2018-06-27T07:47:49.712Z,4.60
2018-06-27T07:50:17.959Z,5.77
2018-06-27T07:52:46.270Z,4.60
2018-06-27T07:55:14.679Z,4.77
2018-06-27T07:57:43.484Z,4.43
2018-06-27T08:00:12.147Z,4.40
2018-06-27T08:02:40.461Z,4.23
2018-06-27T08:05:08.889Z,4.20
2018-06-27T08:07:37.332Z,4.70
2018-06-27T08:10:05.962Z,4.30
2018-06-27T08:12:34.637Z,6.40
2018-06-27T08:15:03.514Z,5.90
2018-06-27T08:17:31.759Z,5.17
2018-06-27T08:20:00.095Z,6.00
2018-06-27T08:22:28.510Z,5.57
2018-06-27T08:24:56.725Z,7.80
2018-06-27T08:27:25.235Z,6.77
2018-06-27T08:29:53.528Z,5.77
2018-06-27T08:32:21.816Z,5.33
2018-06-27T08:34:50.019Z,6.00
2018-06-27T08:37:18.358Z,5.83
2018-06-27T08:39:47.597Z,4.57
2018-06-27T08:42:16.600Z,5.33
2018-06-27T08:44:45.234Z,5.57
2018-06-27T08:47:13.710Z,5.57
2018-06-27T08:49:45.941Z,9.20
2018-06-27T08:52:14.272Z,4.73
2018-06-27T08:54:46.053Z,4.40
2018-06-27T08:57:16.342Z,6.53
2018-06-27T08:59:44.687Z,7.93
2018-06-27T09:02:12.959Z,4.90
2018-06-27T09:04:41.494Z,5.77
2018-06-27T09:07:10.278Z,4.50
2018-06-27T09:09:39.388Z,5.67
2018-06-27T09:12:07.910Z,5.83
2018-06-27T09:14:36.146Z,5.60
2018-06-27T09:17:04.525Z,6.90
2018-06-27T09:19:32.886Z,4.47
2018-06-27T09:22:01.399Z,7.20
2018-06-27T09:24:29.806Z,5.13
2018-06-27T09:26:58.255Z,5.07
2018-06-27T09:29:26.702Z,4.70
2018-06-27T09:31:55.735Z,5.63
2018-06-27T09:34:25.046Z,6.53
2018-06-27T09:36:53.263Z,5.23
2018-06-27T09:39:21.493Z,5.43
2018-06-27T09:41:50.127Z,4.80
2018-06-27T09:44:18.442Z,4.57
2018-06-27T09:46:46.827Z,5.70
2018-06-27T09:49:15.160Z,5.80
2018-06-27T09:51:44.244Z,4.50
2018-06-27T09:54:12.643Z,5.00
2018-06-27T09:56:41.028Z,4.83
2018-06-27T09:59:09.646Z,4.07
2018-06-27T10:01:38.091Z,5.47
2018-06-27T10:04:06.334Z,4.23
2018-06-27T10:06:34.578Z,4.80
2018-06-27T10:09:03.511Z,4.93
2018-06-27T10:11:31.900Z,4.23
2018-06-27T10:14:00.275Z,4.03
2018-06-27T10:16:29.212Z,3.73
2018-06-27T10:18:57.519Z,3.57
2018-06-27T10:21:25.906Z,3.60
2018-06-27T10:23:54.694Z,4.10
2018-06-27T10:26:23.092Z,3.87
2018-06-27T10:28:51.539Z,2.63
2018-06-27T10:31:20.735Z,3.50
2018-06-27T10:33:49.152Z,3.70
2018-06-27T10:36:18.293Z,3.80
2018-06-27T10:38:46.809Z,3.60
2018-06-27T10:41:15.176Z,3.93
2018-06-27T10:43:43.543Z,2.73
2018-06-27T10:46:11.952Z,2.60
2018-06-27T10:48:40.205Z,2.33
2018-06-27T10:51:08.415Z,1.67
2018-06-27T10:53:36.810Z,2.50
2018-06-27T10:56:05.885Z,4.40
2018-06-27T10:58:34.124Z,1.90
2018-06-27T11:01:02.705Z,2.10
2018-06-27T11:03:30.968Z,1.57
2018-06-27T11:05:59.993Z,1.40
2018-06-27T11:08:28.279Z,1.67
2018-06-27T11:10:56.622Z,1.53
2018-06-27T11:13:25.026Z,1.90
2018-06-27T11:15:53.317Z,1.67
2018-06-27T11:18:21.660Z,2.50
2018-06-27T11:20:49.950Z,2.50
2018-06-27T11:23:18.512Z,1.27
2018-06-27T11:25:46.825Z,1.67
2018-06-27T11:28:15.106Z,1.40
2018-06-27T11:30:43.502Z,1.20
2018-06-27T11:33:11.841Z,1.30
2018-06-27T11:35:40.211Z,1.73
2018-06-27T11:38:08.473Z,1.60
2018-06-27T11:40:36.876Z,1.23
2018-06-27T11:43:05.325Z,1.50
2018-06-27T11:45:34.477Z,2.23
2018-06-27T11:48:03.383Z,1.00
2018-06-27T11:50:31.745Z,1.40
2018-06-27T11:53:00.045Z,1.37
2018-06-27T11:55:28.533Z,0.90
2018-06-27T11:57:56.886Z,1.30
2018-06-27T12:00:25.278Z,1.00
2018-06-27T12:02:53.716Z,2.10
2018-06-27T12:05:22.191Z,1.30
2018-06-27T12:07:50.502Z,0.97
2018-06-27T12:10:18.748Z,1.97
2018-06-27T12:12:47.021Z,2.37
2018-06-27T12:15:15.251Z,0.90
2018-06-27T12:17:43.476Z,2.20
2018-06-27T12:20:12.070Z,2.50
2018-06-27T12:22:40.608Z,1.50
2018-06-27T12:25:08.979Z,1.23
2018-06-27T12:27:37.275Z,1.17
2018-06-27T12:30:08.275Z,3.10
2018-06-27T12:32:36.493Z,1.20
2018-06-27T12:35:05.167Z,1.67
2018-06-27T12:37:33.425Z,1.80
2018-06-27T12:40:02.026Z,1.57
2018-06-27T12:42:31.264Z,1.20
2018-06-27T12:44:59.793Z,2.20
2018-06-27T12:47:28.399Z,2.47
2018-06-27T12:49:56.875Z,1.83
2018-06-27T12:52:25.244Z,1.70
2018-06-27T12:54:58.028Z,1.30
2018-06-27T12:57:26.321Z,3.60
2018-06-27T12:59:54.746Z,1.63
2018-06-27T13:02:23.113Z,1.30
2018-06-27T13:04:51.261Z,2.83
2018-06-27T13:07:19.518Z,1.23
2018-06-27T13:09:48.052Z,1.43
2018-06-27T13:12:17.901Z,1.00
2018-06-27T13:14:46.135Z,0.80
2018-06-27T13:17:14.837Z,1.17
2018-06-27T13:19:43.266Z,1.63
2018-06-27T13:22:11.597Z,0.90
2018-06-27T13:24:39.890Z,1.47
2018-06-27T13:27:09.155Z,0.93
2018-06-27T13:29:37.462Z,1.10
2018-06-27T13:32:05.948Z,1.00
2018-06-27T13:34:34.266Z,1.43
2018-06-27T13:37:03.727Z,0.90
2018-06-27T13:39:32.061Z,1.50
2018-06-27T13:42:06.082Z,1.50
2018-06-27T13:44:34.971Z,1.10
2018-06-27T13:47:03.417Z,3.13
2018-06-27T13:49:32.488Z,1.93
2018-06-27T13:52:01.264Z,1.43
2018-06-27T13:54:29.703Z,1.93
2018-06-27T13:56:59.230Z,1.40
2018-06-27T13:59:35.318Z,1.40
2018-06-27T14:02:05.502Z,1.20
2018-06-27T14:04:33.966Z,2.80
2018-06-27T14:07:02.384Z,1.30
2018-06-27T14:09:31.076Z,1.50
2018-06-27T14:11:59.335Z,1.90
2018-06-27T14:14:27.815Z,1.07
2018-06-27T14:16:56.329Z,3.90
2018-06-27T14:19:26.081Z,1.37
2018-06-27T14:21:54.670Z,1.13
2018-06-27T14:24:23.448Z,1.53
2018-06-27T14:26:52.228Z,1.20
2018-06-27T14:29:20.529Z,1.40
2018-06-27T14:31:49.143Z,1.40
2018-06-27T14:34:17.500Z,4.03
2018-06-27T14:36:46.471Z,1.63
2018-06-27T14:39:15.371Z,2.60
2018-06-27T14:41:44.096Z,1.90
2018-06-27T14:44:12.589Z,1.30
2018-06-27T14:46:44.982Z,1.63
2018-06-27T14:49:13.340Z,1.57
2018-06-27T14:51:41.681Z,1.87
2018-06-27T14:54:10.023Z,1.23
2018-06-27T14:56:38.584Z,1.10
2018-06-27T14:59:07.200Z,1.53
2018-06-27T15:01:35.571Z,1.23
2018-06-27T15:04:03.969Z,1.27
2018-06-27T15:06:37.049Z,1.70
2018-06-27T15:09:08.323Z,5.30
2018-06-27T15:11:36.805Z,0.90
2018-06-27T15:14:07.860Z,1.07
2018-06-27T15:16:36.406Z,0.90
2018-06-27T15:19:09.496Z,1.37
2018-06-27T15:21:37.994Z,4.40
2018-06-27T15:24:06.874Z,1.10
2018-06-27T15:26:39.357Z,1.00
2018-06-27T15:29:10.092Z,1.60
2018-06-27T15:31:38.885Z,1.60
2018-06-27T15:34:07.966Z,0.93
2018-06-27T15:36:36.342Z,1.17
2018-06-27T15:39:08.004Z,3.80
2018-06-27T15:41:36.215Z,1.27
2018-06-27T15:44:05.379Z,1.17
2018-06-27T15:46:34.162Z,1.10
2018-06-27T15:49:02.771Z,1.13
2018-06-27T15:51:31.262Z,1.60
2018-06-27T15:53:59.970Z,1.67
2018-06-27T15:56:28.273Z,1.10
2018-06-27T15:58:56.572Z,1.13
2018-06-27T16:01:25.131Z,0.90
2018-06-27T16:03:53.775Z,1.10
2018-06-27T16:06:23.225Z,1.10
2018-06-27T16:08:51.981Z,0.87
2018-06-27T16:11:20.407Z,4.10
2018-06-27T16:13:48.593Z,2.90
2018-06-27T16:16:16.875Z,1.00
2018-06-27T16:18:45.311Z,0.90
2018-06-27T16:21:13.845Z,0.80
2018-06-27T16:23:42.243Z,1.20
2018-06-27T16:26:10.857Z,0.87
2018-06-27T16:28:39.301Z,1.23
2018-06-27T16:31:09.043Z,1.10
2018-06-27T16:33:37.739Z,1.57
2018-06-27T16:36:06.789Z,0.80
2018-06-27T16:38:35.197Z,0.80
2018-06-27T16:41:04.168Z,0.97
2018-06-27T16:43:33.687Z,0.90
2018-06-27T16:46:01.993Z,0.83
2018-06-27T16:48:30.632Z,1.13
2018-06-27T16:50:59.443Z,2.97
2018-06-27T16:53:28.366Z,0.73
2018-06-27T16:55:57.144Z,0.90
2018-06-27T16:58:25.482Z,2.47
2018-06-27T17:00:53.963Z,2.10
2018-06-27T17:03:22.361Z,0.90
2018-06-27T17:05:50.646Z,1.10
2018-06-27T17:08:19.136Z,1.33
2018-06-27T17:10:47.418Z,6.80
2018-06-27T17:13:15.952Z,0.90
2018-06-27T17:15:44.858Z,1.10
2018-06-27T17:18:13.346Z,0.93
2018-06-27T17:20:41.598Z,0.90
2018-06-27T17:23:11.254Z,0.80
2018-06-27T17:25:39.673Z,0.90
2018-06-27T17:28:08.486Z,1.07
2018-06-27T17:30:36.963Z,0.90
2018-06-27T17:33:05.663Z,1.27
2018-06-27T17:35:34.007Z,1.37
2018-06-27T17:38:02.463Z,1.50
2018-06-27T17:40:31.153Z,1.47
2018-06-27T17:43:00.498Z,1.53
2018-06-27T17:45:29.166Z,1.67
2018-06-27T17:47:57.769Z,1.57
2018-06-27T17:50:26.276Z,1.20
2018-06-27T17:52:55.580Z,1.33
2018-06-27T17:55:24.205Z,1.00
2018-06-27T17:57:52.621Z,1.73
2018-06-27T18:00:21.151Z,1.70
2018-06-27T18:02:49.832Z,1.50
2018-06-27T18:05:18.726Z,1.90
2018-06-27T18:07:48.071Z,2.07
2018-06-27T18:10:16.724Z,2.13
2018-06-27T18:12:45.529Z,2.03
2018-06-27T18:15:14.276Z,1.90
2018-06-27T18:17:42.758Z,1.93
2018-06-27T18:20:11.255Z,2.10
2018-06-27T18:22:39.755Z,2.30
2018-06-27T18:25:08.230Z,2.27
2018-06-27T18:27:37.104Z,2.30
2018-06-27T18:30:06.808Z,2.03
2018-06-27T18:32:35.450Z,2.13
2018-06-27T18:35:04.084Z,2.60
2018-06-27T18:37:32.542Z,4.10
2018-06-27T18:40:00.875Z,2.80
2018-06-27T18:42:30.160Z,2.50
2018-06-27T18:44:59.971Z,1.70
2018-06-27T18:47:31.086Z,2.93
2018-06-27T18:50:00.067Z,2.50
2018-06-27T18:52:28.535Z,2.70
2018-06-27T18:54:57.069Z,2.97
2018-06-27T18:57:26.282Z,2.70
2018-06-27T18:59:55.442Z,2.50
2018-06-27T19:02:24.596Z,4.20
2018-06-27T19:04:53.532Z,2.20
2018-06-27T19:07:22.106Z,1.90
2018-06-27T19:09:51.091Z,2.77
2018-06-27T19:12:20.043Z,2.30
2018-06-27T19:14:50.395Z,2.27
2018-06-27T19:17:18.997Z,2.57
2018-06-27T19:19:47.811Z,2.30
2018-06-27T19:22:16.724Z,3.50
2018-06-27T19:24:47.103Z,3.00
2018-06-27T19:27:15.705Z,3.03
2018-06-27T19:29:45.647Z,2.90
2018-06-27T19:32:14.249Z,2.47
2018-06-27T19:34:43.346Z,9.47
2018-06-27T19:37:12.179Z,6.27
2018-06-27T19:39:41.374Z,4.37
2018-06-27T19:42:09.832Z,4.43
2018-06-27T19:44:46.192Z,4.33
2018-06-27T19:47:14.579Z,4.40
2018-06-27T19:49:43.911Z,3.23
2018-06-27T19:52:19.134Z,3.40
2018-06-27T19:54:54.476Z,2.77
2018-06-27T19:57:23.048Z,2.37
2018-06-27T19:59:51.520Z,2.50
2018-06-27T20:02:21.308Z,2.33
2018-06-27T20:04:50.040Z,2.60
2018-06-27T20:07:20.169Z,1.90
2018-06-27T20:09:49.565Z,4.63
2018-06-27T20:12:19.459Z,2.00
2018-06-27T20:14:48.368Z,2.37
2018-06-27T20:17:19.207Z,1.80
2018-06-27T20:19:49.671Z,1.97
2018-06-27T20:22:20.506Z,1.50
2018-06-27T20:24:49.843Z,1.80
2018-06-27T20:27:21.703Z,1.60
2018-06-27T20:29:59.656Z,1.93
2018-06-27T20:32:28.157Z,2.00
2018-06-27T20:35:01.651Z,1.10
2018-06-27T20:37:30.247Z,1.37
2018-06-27T20:39:58.851Z,1.30
2018-06-27T20:42:27.402Z,2.80
2018-06-27T20:44:55.881Z,1.63
2018-06-27T20:47:24.397Z,1.30
2018-06-27T20:49:53.030Z,1.60
2018-06-27T20:52:21.461Z,1.20
2018-06-27T20:54:50.704Z,1.53
2018-06-27T20:57:20.482Z,5.10
2018-06-27T20:59:54.259Z,1.73
2018-06-27T21:02:23.155Z,1.30
2018-06-27T21:04:55.352Z,2.30
2018-06-27T21:07:24.638Z,2.77
2018-06-27T21:09:54.105Z,1.60
2018-06-27T21:12:25.569Z,1.27
2018-06-27T21:14:55.388Z,1.67
2018-06-27T21:17:24.299Z,1.37
2018-06-27T21:19:52.850Z,1.40
2018-06-27T21:22:22.212Z,1.60
2018-06-27T21:24:52.243Z,1.70
2018-06-27T21:27:22.384Z,1.27
2018-06-27T21:29:51.515Z,1.50
2018-06-27T21:32:20.782Z,1.40
2018-06-27T21:35:47.492Z,3.33
2018-06-27T21:38:19.055Z,2.03
2018-06-27T21:40:49.032Z,1.77
2018-06-27T21:43:20.199Z,1.63
2018-06-27T21:45:49.942Z,2.30
2018-06-27T21:48:21.296Z,1.80
2018-06-27T21:50:55.706Z,1.73
2018-06-27T21:53:51.288Z,2.50
2018-06-27T21:56:19.603Z,1.50
2018-06-27T21:58:48.460Z,1.80
2018-06-27T22:01:18.963Z,1.87
2018-06-27T22:03:51.222Z,1.80
2018-06-27T22:06:21.620Z,2.33
2018-06-27T22:08:49.887Z,1.10
2018-06-27T22:11:20.415Z,3.60
2018-06-27T22:13:53.733Z,2.50
2018-06-27T22:16:30.696Z,5.70
2018-06-27T22:19:02.304Z,3.10
2018-06-27T22:21:38.130Z,1.70
2018-06-27T22:24:07.362Z,1.70
2018-06-27T22:26:37.125Z,1.43
2018-06-27T22:29:08.533Z,1.80
2018-06-27T22:31:42.500Z,1.40
2018-06-27T22:34:20.574Z,1.80
2018-06-27T22:36:49.004Z,2.43
2018-06-27T22:39:18.418Z,1.63
2018-06-27T22:41:56.708Z,1.73
2018-06-27T22:44:33.506Z,4.30
2018-06-27T22:47:06.408Z,2.00
2018-06-27T22:49:34.902Z,2.00
2018-06-27T22:52:03.479Z,2.40
2018-06-27T22:54:31.747Z,1.73
2018-06-27T22:57:00.602Z,5.73
2018-06-27T22:59:28.894Z,1.80
2018-06-27T23:01:59.046Z,1.93
2018-06-27T23:04:27.535Z,1.70
2018-06-27T23:06:57.006Z,2.57
2018-06-27T23:09:25.327Z,1.67
2018-06-27T23:11:53.734Z,2.10
2018-06-27T23:14:22.617Z,2.10
2018-06-27T23:16:51.127Z,2.27
2018-06-27T23:19:19.693Z,1.70
2018-06-27T23:21:48.676Z,2.07
2018-06-27T23:24:17.046Z,1.60
2018-06-27T23:26:45.363Z,2.07
2018-06-27T23:29:13.555Z,1.80
2018-06-27T23:31:42.338Z,1.30
2018-06-27T23:34:10.578Z,2.00
2018-06-27T23:36:44.220Z,1.80
2018-06-27T23:39:13.656Z,1.70
2018-06-27T23:41:42.799Z,2.03
2018-06-27T23:44:15.810Z,2.20
2018-06-27T23:46:44.573Z,1.80
2018-06-27T23:49:12.871Z,1.87
2018-06-27T23:51:41.254Z,2.03
2018-06-27T23:54:11.275Z,1.90
2018-06-27T23:56:39.974Z,1.90
2018-06-27T23:59:08.455Z,1.90
